createdAt,value
2022-10-30T00:01:28.575Z,97.79
2022-10-30T00:03:55.403Z,97.71
2022-10-30T00:06:22.007Z,97.69
2022-10-30T00:08:48.918Z,97.96
2022-10-30T00:11:15.588Z,98.34
2022-10-30T00:13:44.010Z,98.06
2022-10-30T00:16:12.040Z,97.64
2022-10-30T00:18:39.715Z,97.94
2022-10-30T00:21:07.804Z,97.53
2022-10-30T00:23:34.390Z,97.51
2022-10-30T00:26:04.901Z,97.44
2022-10-30T00:28:31.572Z,97.30
2022-10-30T00:31:00.041Z,97.56
2022-10-30T00:33:28.142Z,97.65
2022-10-30T00:35:54.911Z,97.11
2022-10-30T00:38:21.600Z,97.02
2022-10-30T00:40:48.889Z,97.17
2022-10-30T00:43:33.871Z,97.43
2022-10-30T00:46:06.308Z,97.47
2022-10-30T00:48:34.963Z,97.22
2022-10-30T00:51:04.954Z,97.43
2022-10-30T00:53:31.914Z,97.64
2022-10-30T00:56:02.857Z,98.10
2022-10-30T00:58:34.261Z,98.29
2022-10-30T01:01:06.706Z,97.93
2022-10-30T01:03:36.213Z,98.28
2022-10-30T01:06:06.996Z,98.20
2022-10-30T01:08:34.133Z,98.59
2022-10-30T01:11:02.894Z,98.13
2022-10-30T01:13:30.543Z,98.17
2022-10-30T01:16:17.730Z,98.96
2022-10-30T01:18:52.918Z,99.02
2022-10-30T01:21:33.995Z,99.36
2022-10-30T01:24:17.248Z,99.07
2022-10-30T01:26:52.516Z,99.13
2022-10-30T01:29:33.000Z,98.88
2022-10-30T01:32:12.727Z,98.74
2022-10-30T01:34:45.722Z,98.71
2022-10-30T01:37:20.515Z,98.68
2022-10-30T01:39:47.588Z,98.79
2022-10-30T01:42:52.721Z,99.04
2022-10-30T01:45:31.959Z,99.22
2022-10-30T01:48:12.514Z,99.19
2022-10-30T01:50:49.898Z,99.19
2022-10-30T01:53:31.982Z,98.84
2022-10-30T01:56:06.137Z,98.71
2022-10-30T01:58:40.873Z,97.59
2022-10-30T02:01:08.396Z,97.08
2022-10-30T02:03:35.109Z,96.83
2022-10-30T02:06:03.886Z,97.08
2022-10-30T02:08:30.524Z,96.55
2022-10-30T02:10:58.879Z,96.95
2022-10-30T02:13:25.547Z,97.59
2022-10-30T02:15:52.189Z,96.81
2022-10-30T02:18:19.024Z,96.88
2022-10-30T02:20:47.064Z,96.54
2022-10-30T02:23:13.979Z,96.35
2022-10-30T02:25:40.687Z,97.16
2022-10-30T02:28:07.582Z,97.35
2022-10-30T02:30:34.248Z,97.52
2022-10-30T02:33:01.449Z,97.50
2022-10-30T02:35:29.471Z,97.35
2022-10-30T02:37:58.206Z,97.50
2022-10-30T02:40:25.000Z,97.45
2022-10-30T02:42:52.848Z,97.56
2022-10-30T02:45:19.705Z,97.54
2022-10-30T02:47:46.463Z,97.30
2022-10-30T02:50:13.472Z,97.40
2022-10-30T02:52:40.138Z,97.37
2022-10-30T02:55:08.914Z,97.71
2022-10-30T02:57:35.700Z,97.35
2022-10-30T03:00:02.275Z,97.65
2022-10-30T03:02:29.063Z,97.98
2022-10-30T03:04:55.688Z,97.96
2022-10-30T03:07:22.769Z,97.81
2022-10-30T03:09:49.341Z,97.69
2022-10-30T03:12:17.329Z,97.78
2022-10-30T03:14:43.992Z,97.82
2022-10-30T03:17:10.755Z,98.03
2022-10-30T03:19:37.706Z,98.16
2022-10-30T03:22:04.297Z,98.08
2022-10-30T03:24:31.025Z,98.06
2022-10-30T03:26:57.603Z,98.14
2022-10-30T03:29:25.565Z,97.99
2022-10-30T03:31:52.148Z,97.58
2022-10-30T03:34:18.773Z,97.72
2022-10-30T03:36:45.339Z,97.92
2022-10-30T03:39:12.347Z,98.42
2022-10-30T03:41:38.906Z,99.17
2022-10-30T03:44:05.618Z,99.39
2022-10-30T03:46:33.574Z,99.18
2022-10-30T03:49:00.576Z,99.31
2022-10-30T03:51:27.162Z,99.19
2022-10-30T03:53:54.003Z,99.04
2022-10-30T03:56:20.686Z,98.88
2022-10-30T03:58:47.275Z,98.61
2022-10-30T04:01:14.168Z,98.31
2022-10-30T04:03:42.554Z,98.13
2022-10-30T04:06:09.343Z,97.24
2022-10-30T04:08:36.093Z,96.93
2022-10-30T04:11:02.731Z,96.71
2022-10-30T04:13:29.706Z,96.73
2022-10-30T04:15:58.209Z,96.73
2022-10-30T04:18:25.440Z,95.98
2022-10-30T04:20:53.987Z,95.84
2022-10-30T04:23:21.786Z,95.58
2022-10-30T04:25:48.725Z,95.54
2022-10-30T04:28:15.478Z,96.57
2022-10-30T04:30:42.282Z,96.83
2022-10-30T04:33:11.654Z,96.54
2022-10-30T04:35:38.721Z,96.86
2022-10-30T04:38:08.537Z,97.08
2022-10-30T04:40:38.345Z,97.25
2022-10-30T04:43:05.696Z,97.50
2022-10-30T04:45:32.505Z,97.20
2022-10-30T04:48:03.301Z,97.00
2022-10-30T04:50:30.822Z,97.04
2022-10-30T04:53:01.389Z,96.85
2022-10-30T04:55:29.993Z,96.64
2022-10-30T04:57:58.043Z,96.82
2022-10-30T05:00:25.844Z,96.49
2022-10-30T05:02:52.587Z,96.63
2022-10-30T05:05:20.282Z,95.88
2022-10-30T05:07:46.859Z,95.73
2022-10-30T05:10:14.825Z,95.99
2022-10-30T05:12:43.645Z,96.19
2022-10-30T05:15:11.461Z,96.12
2022-10-30T05:17:38.109Z,96.15
2022-10-30T05:20:06.289Z,96.65
2022-10-30T05:22:33.006Z,96.45
2022-10-30T05:24:59.589Z,96.39
2022-10-30T05:27:26.342Z,96.48
2022-10-30T05:29:54.332Z,96.66
2022-10-30T05:32:20.887Z,97.17
2022-10-30T05:34:47.463Z,97.82
2022-10-30T05:37:14.058Z,97.75
2022-10-30T05:39:40.987Z,97.86
2022-10-30T05:42:11.224Z,97.99
2022-10-30T05:44:59.741Z,97.44
2022-10-30T05:47:28.458Z,96.55
2022-10-30T05:49:55.494Z,96.59
2022-10-30T05:52:22.161Z,96.64
2022-10-30T05:54:48.833Z,95.85
2022-10-30T05:57:15.483Z,95.08
2022-10-30T05:59:42.185Z,96.10
2022-10-30T06:02:09.028Z,96.08
2022-10-30T06:04:37.307Z,95.79
2022-10-30T06:07:04.052Z,95.66
2022-10-30T06:09:30.975Z,95.93
2022-10-30T06:11:58.171Z,96.16
2022-10-30T06:14:25.020Z,95.45
2022-10-30T06:16:51.608Z,95.06
2022-10-30T06:19:19.039Z,95.06
2022-10-30T06:21:47.224Z,95.11
2022-10-30T06:24:14.640Z,94.63
2022-10-30T06:26:41.686Z,94.90
2022-10-30T06:29:08.433Z,94.84
2022-10-30T06:31:35.052Z,95.50
2022-10-30T06:34:02.079Z,94.96
2022-10-30T06:36:28.899Z,94.96
2022-10-30T06:38:56.962Z,94.75
2022-10-30T06:41:27.537Z,94.52
2022-10-30T06:43:55.745Z,94.23
2022-10-30T06:46:24.532Z,93.58
2022-10-30T06:48:54.035Z,93.00
2022-10-30T06:51:21.011Z,93.57
2022-10-30T06:53:47.912Z,93.82
2022-10-30T06:56:16.270Z,93.59
2022-10-30T06:58:42.883Z,93.38
2022-10-30T07:01:09.522Z,93.01
2022-10-30T07:03:36.588Z,92.73
2022-10-30T07:06:03.210Z,92.86
2022-10-30T07:08:29.822Z,93.12
2022-10-30T07:10:57.187Z,92.54
2022-10-30T07:13:25.917Z,92.64
2022-10-30T07:15:52.536Z,92.84
2022-10-30T07:18:19.288Z,92.26
2022-10-30T07:20:45.874Z,92.42
2022-10-30T07:23:12.704Z,92.59
2022-10-30T07:25:39.354Z,92.51
2022-10-30T07:28:05.964Z,92.38
2022-10-30T07:30:34.258Z,92.33
2022-10-30T07:33:02.797Z,92.59
2022-10-30T07:35:30.382Z,92.06
2022-10-30T07:38:02.034Z,92.00
2022-10-30T07:40:28.767Z,92.50
2022-10-30T07:42:59.201Z,92.15
2022-10-30T07:45:26.770Z,92.36
2022-10-30T07:47:55.687Z,92.30
2022-10-30T07:50:23.275Z,92.62
2022-10-30T07:52:50.155Z,92.01
2022-10-30T07:55:17.220Z,92.14
2022-10-30T07:57:43.785Z,91.67
2022-10-30T08:00:12.768Z,91.56
2022-10-30T08:02:39.696Z,91.74
2022-10-30T08:05:08.761Z,91.39
2022-10-30T08:07:36.861Z,91.53
2022-10-30T08:10:04.202Z,90.94
2022-10-30T08:12:33.060Z,90.48
2022-10-30T08:14:59.666Z,90.77
2022-10-30T08:17:26.295Z,90.21
2022-10-30T08:19:53.007Z,90.10
2022-10-30T08:22:20.963Z,90.14
2022-10-30T08:24:47.786Z,90.13
2022-10-30T08:27:14.341Z,89.75
2022-10-30T08:29:41.496Z,90.11
2022-10-30T08:32:08.087Z,90.09
2022-10-30T08:34:34.969Z,89.72
2022-10-30T08:37:01.572Z,89.55
2022-10-30T08:39:29.855Z,89.37
2022-10-30T08:41:57.878Z,89.46
2022-10-30T08:44:24.462Z,89.32
2022-10-30T08:46:51.104Z,89.09
2022-10-30T08:49:17.754Z,88.96
2022-10-30T08:51:44.314Z,88.98
2022-10-30T08:54:10.961Z,89.33
2022-10-30T08:56:38.937Z,88.95
2022-10-30T08:59:05.569Z,88.79
2022-10-30T09:01:32.327Z,88.25
2022-10-30T09:03:59.036Z,87.94
2022-10-30T09:06:25.634Z,87.34
2022-10-30T09:08:52.216Z,87.58
2022-10-30T09:11:19.082Z,87.41
2022-10-30T09:13:47.030Z,86.40
2022-10-30T09:16:13.648Z,85.30
2022-10-30T09:18:41.394Z,84.82
2022-10-30T09:21:08.055Z,85.09
2022-10-30T09:23:34.638Z,85.16
2022-10-30T09:26:01.570Z,84.83
2022-10-30T09:28:28.139Z,84.97
2022-10-30T09:30:56.550Z,83.95
2022-10-30T09:33:23.429Z,83.92
2022-10-30T09:35:50.445Z,84.35
2022-10-30T09:38:17.049Z,84.10
2022-10-30T09:41:01.211Z,84.50
2022-10-30T09:43:39.135Z,85.50
2022-10-30T09:46:18.881Z,85.25
2022-10-30T09:48:59.658Z,85.57
2022-10-30T09:51:53.221Z,86.00
2022-10-30T09:54:27.691Z,86.37
2022-10-30T09:57:02.408Z,85.21
2022-10-30T09:59:43.362Z,84.82
2022-10-30T10:02:26.016Z,84.58
2022-10-30T10:04:58.206Z,84.03
2022-10-30T10:07:29.874Z,83.69
2022-10-30T10:10:01.289Z,82.63
2022-10-30T10:12:33.555Z,82.72
2022-10-30T10:15:04.422Z,81.45
2022-10-30T10:17:36.622Z,81.63
2022-10-30T10:20:04.883Z,81.71
2022-10-30T10:22:38.545Z,82.06
2022-10-30T10:25:09.965Z,81.21
2022-10-30T10:27:50.500Z,81.55
2022-10-30T10:30:19.869Z,81.00
2022-10-30T10:33:10.471Z,81.45
2022-10-30T10:36:03.570Z,81.32
2022-10-30T10:38:44.634Z,81.21
2022-10-30T10:41:19.038Z,81.12
2022-10-30T10:44:15.358Z,80.38
2022-10-30T10:46:53.968Z,79.67
2022-10-30T10:49:39.010Z,77.68
2022-10-30T10:52:10.560Z,77.01
2022-10-30T10:54:43.580Z,76.91
2022-10-30T10:57:17.711Z,77.60
2022-10-30T10:59:50.383Z,77.53
2022-10-30T11:02:34.086Z,76.38
2022-10-30T11:05:07.929Z,74.38
2022-10-30T11:07:45.532Z,75.42
2022-10-30T11:10:14.235Z,75.02
2022-10-30T11:12:41.311Z,74.25
2022-10-30T11:15:31.299Z,74.07
2022-10-30T11:18:01.499Z,73.58
2022-10-30T11:20:40.018Z,74.04
2022-10-30T11:23:34.752Z,74.12
2022-10-30T11:26:02.336Z,73.51
2022-10-30T11:28:40.901Z,73.06
2022-10-30T11:31:22.973Z,72.44
2022-10-30T11:33:50.486Z,73.06
2022-10-30T11:36:22.011Z,72.46
2022-10-30T11:38:49.034Z,71.47
2022-10-30T11:41:16.955Z,71.64
2022-10-30T11:43:44.277Z,71.09
2022-10-30T11:46:16.279Z,71.03
2022-10-30T11:48:44.815Z,71.18
2022-10-30T11:51:13.634Z,72.11
2022-10-30T11:53:47.890Z,71.43
2022-10-30T11:56:17.865Z,71.28
2022-10-30T11:58:48.718Z,71.46
2022-10-30T12:01:22.184Z,71.00
2022-10-30T12:03:49.026Z,70.80
2022-10-30T12:06:20.842Z,72.12
2022-10-30T12:09:12.979Z,72.02
2022-10-30T12:11:41.637Z,69.75
2022-10-30T12:14:17.089Z,71.21
2022-10-30T12:16:46.561Z,70.05
2022-10-30T12:19:14.914Z,69.74
2022-10-30T12:21:48.525Z,70.21
2022-10-30T12:24:21.398Z,71.03
2022-10-30T12:26:50.929Z,67.21
2022-10-30T12:29:19.764Z,69.08
2022-10-30T12:31:53.646Z,67.05
2022-10-30T12:34:33.857Z,67.41
2022-10-30T12:37:08.216Z,66.73
2022-10-30T12:39:49.112Z,67.63
2022-10-30T12:42:17.756Z,66.29
2022-10-30T12:44:48.341Z,66.68
2022-10-30T12:47:23.547Z,64.03
2022-10-30T12:49:52.267Z,65.86
2022-10-30T12:52:24.606Z,65.36
2022-10-30T12:54:58.905Z,67.15
2022-10-30T12:57:30.869Z,68.35
2022-10-30T13:00:02.796Z,68.33
2022-10-30T13:02:40.729Z,66.64
2022-10-30T13:05:28.449Z,65.85
2022-10-30T13:08:09.815Z,65.23
2022-10-30T13:10:44.330Z,64.56
2022-10-30T13:13:16.603Z,66.34
2022-10-30T13:15:48.293Z,67.17
2022-10-30T13:18:15.828Z,68.07
2022-10-30T13:20:48.439Z,66.67
2022-10-30T13:23:23.671Z,67.80
2022-10-30T13:26:02.846Z,68.67
2022-10-30T13:28:36.143Z,67.67
2022-10-30T13:31:14.439Z,68.88
2022-10-30T13:33:47.513Z,69.00
2022-10-30T13:36:21.266Z,68.71
2022-10-30T13:38:58.537Z,68.58
2022-10-30T13:41:34.220Z,68.76
2022-10-30T13:44:09.855Z,68.14
2022-10-30T13:46:53.937Z,69.56
2022-10-30T13:49:37.762Z,70.08
2022-10-30T13:52:12.678Z,70.42
2022-10-30T13:54:44.875Z,71.49
2022-10-30T13:57:19.569Z,71.83
2022-10-30T14:00:00.045Z,72.44
2022-10-30T14:02:42.204Z,71.89
2022-10-30T14:05:23.057Z,70.90
2022-10-30T14:07:55.365Z,72.37
2022-10-30T14:10:39.599Z,72.94
2022-10-30T14:13:21.107Z,72.94
2022-10-30T14:15:47.819Z,74.50
2022-10-30T14:18:25.058Z,74.87
2022-10-30T14:20:52.705Z,75.69
2022-10-30T14:23:25.043Z,77.05
2022-10-30T14:26:20.492Z,78.25
2022-10-30T14:28:50.998Z,78.18
2022-10-30T14:31:19.221Z,78.69
2022-10-30T14:33:48.362Z,78.29
2022-10-30T14:36:25.680Z,78.72
2022-10-30T14:38:54.422Z,79.05
2022-10-30T14:41:48.457Z,79.22
2022-10-30T14:44:28.398Z,79.77
2022-10-30T14:47:09.801Z,80.00
2022-10-30T14:49:48.310Z,80.38
2022-10-30T14:52:22.107Z,81.68
2022-10-30T14:54:58.855Z,81.84
2022-10-30T14:57:44.927Z,81.93
2022-10-30T15:00:38.564Z,82.23
2022-10-30T15:03:10.359Z,82.72
2022-10-30T15:05:43.858Z,83.19
2022-10-30T15:08:38.332Z,84.21
2022-10-30T15:11:19.466Z,84.68
2022-10-30T15:13:48.867Z,84.53
2022-10-30T15:16:19.763Z,85.20
2022-10-30T15:18:46.871Z,86.16
2022-10-30T15:21:20.690Z,86.10
2022-10-30T15:23:47.298Z,87.42
2022-10-30T15:26:20.326Z,87.53
2022-10-30T15:28:50.718Z,87.78
2022-10-30T15:31:24.129Z,88.15
2022-10-30T15:33:51.281Z,88.53
2022-10-30T15:36:18.943Z,88.69
2022-10-30T15:39:02.509Z,89.71
2022-10-30T15:41:29.461Z,90.14
2022-10-30T15:43:56.294Z,91.12
2022-10-30T15:46:24.783Z,91.08
2022-10-30T15:48:51.707Z,92.38
2022-10-30T15:51:22.313Z,92.07
2022-10-30T15:53:53.027Z,92.09
2022-10-30T15:56:26.794Z,91.69
2022-10-30T15:58:57.353Z,92.89
2022-10-30T16:01:27.402Z,92.38
2022-10-30T16:03:54.600Z,92.81
2022-10-30T16:06:24.478Z,93.65
2022-10-30T16:08:51.168Z,93.59
2022-10-30T16:11:18.429Z,94.97
2022-10-30T16:13:44.999Z,95.13
2022-10-30T16:16:20.472Z,94.29
2022-10-30T16:18:49.206Z,93.81
2022-10-30T16:21:18.205Z,93.85
2022-10-30T16:23:49.426Z,93.71
2022-10-30T16:26:25.898Z,93.59
2022-10-30T16:28:52.894Z,94.80
2022-10-30T16:31:20.408Z,94.48
2022-10-30T16:33:49.189Z,94.20
2022-10-30T16:36:18.216Z,94.18
2022-10-30T16:38:47.624Z,95.62
2022-10-30T16:41:14.453Z,97.62
2022-10-30T16:43:42.667Z,97.24
2022-10-30T16:46:37.987Z,97.92
2022-10-30T16:49:12.162Z,97.36
2022-10-30T16:51:39.838Z,97.37
2022-10-30T16:54:06.666Z,96.95
2022-10-30T16:56:33.426Z,97.01
2022-10-30T16:59:08.049Z,96.60
2022-10-30T17:01:35.422Z,96.76
2022-10-30T17:04:02.764Z,96.70
2022-10-30T17:06:39.604Z,96.29
2022-10-30T17:09:08.343Z,96.45
2022-10-30T17:11:37.420Z,96.46
2022-10-30T17:14:15.177Z,97.28
2022-10-30T17:16:41.759Z,97.24
2022-10-30T17:19:38.050Z,98.32
2022-10-30T17:22:10.158Z,98.68
2022-10-30T17:24:38.374Z,98.20
2022-10-30T17:27:07.628Z,97.98
2022-10-30T17:29:46.465Z,97.59
2022-10-30T17:32:19.404Z,97.51
2022-10-30T17:34:46.599Z,97.21
2022-10-30T17:37:14.582Z,97.53
2022-10-30T17:39:41.259Z,97.71
2022-10-30T17:42:10.139Z,98.01
2022-10-30T17:44:37.044Z,97.97
2022-10-30T17:47:14.072Z,97.87
2022-10-30T17:49:40.843Z,97.59
2022-10-30T17:52:10.460Z,97.15
2022-10-30T17:54:38.408Z,96.51
2022-10-30T17:57:05.356Z,96.55
2022-10-30T17:59:31.915Z,98.18
2022-10-30T18:01:58.504Z,98.32
2022-10-30T18:04:25.420Z,98.56
2022-10-30T18:06:51.980Z,98.46
2022-10-30T18:09:18.551Z,98.44
2022-10-30T18:11:46.475Z,98.04
2022-10-30T18:14:13.041Z,97.43
2022-10-30T18:16:39.592Z,97.32
2022-10-30T18:19:10.631Z,96.99
2022-10-30T18:21:37.828Z,96.92
2022-10-30T18:24:10.971Z,97.06
2022-10-30T18:26:40.407Z,97.30
2022-10-30T18:29:08.961Z,97.65
2022-10-30T18:31:36.190Z,97.91
2022-10-30T18:34:02.917Z,97.14
2022-10-30T18:36:29.477Z,96.64
2022-10-30T18:38:56.261Z,96.78
2022-10-30T18:41:30.913Z,96.58
2022-10-30T18:43:57.547Z,96.66
2022-10-30T18:46:25.644Z,97.24
2022-10-30T18:48:52.213Z,97.22
2022-10-30T18:51:21.890Z,96.87
2022-10-30T18:53:48.563Z,97.21
2022-10-30T18:56:15.368Z,97.26
2022-10-30T18:58:41.969Z,97.35
2022-10-30T19:01:12.926Z,97.68
2022-10-30T19:03:41.401Z,97.61
2022-10-30T19:06:11.187Z,97.31
2022-10-30T19:08:38.113Z,97.27
2022-10-30T19:11:05.411Z,97.25
2022-10-30T19:13:32.508Z,97.05
2022-10-30T19:16:00.635Z,97.01
2022-10-30T19:18:28.132Z,96.81
2022-10-30T19:21:05.064Z,96.20
2022-10-30T19:23:33.819Z,95.69
2022-10-30T19:26:00.737Z,95.77
2022-10-30T19:28:27.438Z,97.24
2022-10-30T19:30:54.020Z,97.19
2022-10-30T19:33:22.006Z,97.44
2022-10-30T19:35:53.424Z,98.15
2022-10-30T19:38:21.674Z,98.37
2022-10-30T19:40:48.485Z,97.81
2022-10-30T19:43:15.110Z,98.52
2022-10-30T19:45:41.681Z,98.58
2022-10-30T19:48:13.236Z,98.80
2022-10-30T19:50:41.295Z,98.83
2022-10-30T19:53:08.491Z,98.43
2022-10-30T19:55:38.591Z,98.46
2022-10-30T19:58:06.614Z,98.31
2022-10-30T20:00:34.750Z,97.47
2022-10-30T20:03:02.566Z,97.42
2022-10-30T20:05:36.558Z,96.50
2022-10-30T20:08:05.722Z,96.61
2022-10-30T20:10:35.201Z,96.39
2022-10-30T20:13:03.467Z,96.49
2022-10-30T20:15:30.167Z,96.82
2022-10-30T20:17:58.006Z,96.45
2022-10-30T20:20:26.827Z,96.41
2022-10-30T20:22:53.510Z,96.44
2022-10-30T20:25:20.858Z,96.37
2022-10-30T20:27:48.547Z,96.42
2022-10-30T20:30:19.145Z,96.12
2022-10-30T20:32:46.155Z,96.55
2022-10-30T20:35:13.073Z,96.68
2022-10-30T20:37:40.460Z,96.40
2022-10-30T20:40:12.683Z,96.16
2022-10-30T20:42:39.607Z,96.73
2022-10-30T20:45:07.214Z,96.65
2022-10-30T20:47:35.139Z,96.23
2022-10-30T20:50:01.709Z,96.80
2022-10-30T20:52:28.307Z,96.80
2022-10-30T20:54:54.918Z,96.81
2022-10-30T20:57:21.479Z,96.36
2022-10-30T20:59:48.073Z,96.47
2022-10-30T21:02:14.771Z,96.27
2022-10-30T21:04:42.911Z,96.02
2022-10-30T21:07:09.470Z,96.52
2022-10-30T21:09:36.018Z,96.38
2022-10-30T21:12:02.578Z,96.27
2022-10-30T21:14:29.133Z,96.24
2022-10-30T21:16:55.704Z,96.39
2022-10-30T21:19:22.325Z,96.47
2022-10-30T21:21:50.308Z,97.13
2022-10-30T21:24:16.863Z,97.31
2022-10-30T21:26:43.578Z,97.06
2022-10-30T21:29:10.150Z,97.89
2022-10-30T21:31:36.693Z,97.65
2022-10-30T21:34:03.356Z,97.92
2022-10-30T21:36:29.917Z,97.67
2022-10-30T21:38:58.830Z,97.92
2022-10-30T21:41:27.348Z,98.36
2022-10-30T21:43:55.389Z,98.09
2022-10-30T21:46:23.482Z,98.06
2022-10-30T21:48:50.634Z,97.75
2022-10-30T21:51:20.692Z,97.56
2022-10-30T21:53:47.880Z,97.56
2022-10-30T21:56:18.457Z,97.20
2022-10-30T21:58:45.173Z,97.35
2022-10-30T22:01:17.482Z,97.11
2022-10-30T22:03:44.101Z,97.07
2022-10-30T22:06:12.465Z,96.52
2022-10-30T22:08:39.860Z,96.28
2022-10-30T22:11:08.215Z,96.60
2022-10-30T22:13:36.974Z,96.56
2022-10-30T22:16:05.534Z,96.89
2022-10-30T22:18:32.766Z,96.58
2022-10-30T22:21:00.278Z,96.61
2022-10-30T22:23:27.230Z,96.39
2022-10-30T22:25:54.798Z,96.43
2022-10-30T22:28:21.418Z,96.26
2022-10-30T22:30:49.602Z,96.43
2022-10-30T22:33:16.246Z,96.54
2022-10-30T22:35:42.905Z,96.36
2022-10-30T22:38:09.550Z,96.70
2022-10-30T22:40:36.121Z,96.93
2022-10-30T22:43:02.783Z,96.90
2022-10-30T22:45:29.495Z,96.71
2022-10-30T22:47:57.759Z,96.35
2022-10-30T22:50:24.581Z,96.54
2022-10-30T22:52:51.150Z,96.59
2022-10-30T22:55:17.761Z,96.78
2022-10-30T22:57:44.363Z,96.78
2022-10-30T23:00:16.714Z,96.85
2022-10-30T23:02:45.905Z,96.70
2022-10-30T23:05:13.926Z,96.91
2022-10-30T23:07:40.490Z,96.73
2022-10-30T23:10:08.374Z,96.30
2022-10-30T23:12:34.963Z,96.40
2022-10-30T23:15:01.572Z,96.40
2022-10-30T23:17:28.167Z,96.37
2022-10-30T23:19:54.756Z,96.62
2022-10-30T23:22:22.732Z,96.68
2022-10-30T23:24:49.309Z,96.87
2022-10-30T23:27:15.875Z,96.84
2022-10-30T23:29:42.428Z,96.87
2022-10-30T23:32:08.974Z,96.89
2022-10-30T23:34:35.509Z,96.81
2022-10-30T23:37:02.124Z,96.67
2022-10-30T23:39:30.062Z,96.71
2022-10-30T23:41:56.649Z,96.89
2022-10-30T23:44:23.202Z,96.99
2022-10-30T23:46:49.789Z,97.01
2022-10-30T23:49:16.371Z,96.79
2022-10-30T23:51:42.972Z,96.88
2022-10-30T23:54:09.727Z,97.28
2022-10-30T23:56:37.674Z,96.88
2022-10-30T23:59:04.261Z,96.81
